Time,TemperatureF,DewpointF,PressureIn,WindDirection,WindDirectionDegrees,WindSpeedMPH,WindSpeedGustMPH,Humidity,HourlyPrecipIn,Conditions,Clouds,dailyrainin,SolarRadiationWatts/m^2,SoftwareType,DateUTC
2013-02-27 00:00:00,61.1,60.0,29.89,SW,221,3.0,23.0,96,0.00,,,0.26,0,Wunderground v.1.15,2013-02-27 05:00:00,
2013-02-27 01:00:00,59.3,57.3,29.90,SW,216,1.0,23.0,93,0.00,,,0.00,0,Wunderground v.1.15,2013-02-27 06:00:00,
2013-02-27 02:00:00,55.4,53.7,29.90,South,186,0.0,23.0,94,0.00,,,0.00,0,Wunderground v.1.15,2013-02-27 07:00:00,
2013-02-27 03:00:00,53.4,52.6,29.89,SSE,164,1.0,23.0,97,0.00,,,0.00,0,Wunderground v.1.15,2013-02-27 08:00:00,
2013-02-27 04:00:00,57.0,56.4,29.90,SSE,164,0.0,23.0,98,0.00,,,0.00,0,Wunderground v.1.15,2013-02-27 09:00:00,
2013-02-27 05:00:00,56.5,55.9,29.90,SW,214,0.0,23.0,98,0.00,,,0.00,0,Wunderground v.1.15,2013-02-27 10:00:00,
2013-02-27 06:00:00,58.9,58.3,29.91,NW,306,3.0,23.0,98,0.00,,,0.00,0,Wunderground v.1.15,2013-02-27 11:00:00,
2013-02-27 07:00:00,57.1,55.1,29.92,NW,304,0.0,23.0,93,0.00,,,0.01,12,Wunderground v.1.15,2013-02-27 12:00:00,
2013-02-27 08:00:00,58.4,57.8,29.94,NW,304,0.0,23.0,98,0.00,,,0.01,155,Wunderground v.1.15,2013-02-27 13:00:00,
2013-02-27 09:00:00,63.6,58.3,29.96,WNW,300,7.0,23.0,83,0.00,,,0.01,417,Wunderground v.1.15,2013-02-27 14:00:00,
2013-02-27 10:00:00,64.4,57.7,29.99,WNW,294,7.0,23.0,79,0.00,,,0.01,591,Wunderground v.1.15,2013-02-27 15:00:00,
2013-02-27 11:00:00,67.0,57.7,29.99,West,279,7.0,23.0,72,0.00,,,0.01,668,Wunderground v.1.15,2013-02-27 16:00:00,
2013-02-27 12:00:00,68.2,58.0,29.98,WSW,244,5.0,23.0,70,0.00,,,0.01,974,Wunderground v.1.15,2013-02-27 17:00:00,
2013-02-27 13:00:00,70.0,55.0,29.96,WSW,254,6.0,23.0,59,0.00,,,0.01,487,Wunderground v.1.15,2013-02-27 18:00:00,
2013-02-27 14:00:00,71.9,54.9,29.93,SW,227,6.0,23.0,55,0.00,,,0.01,772,Wunderground v.1.15,2013-02-27 19:00:00,
2013-02-27 15:00:00,74.1,55.3,29.90,WSW,237,4.0,23.0,52,0.00,,,0.01,315,Wunderground v.1.15,2013-02-27 20:00:00,
2013-02-27 16:00:00,75.2,53.6,29.90,WSW,244,5.0,23.0,47,0.00,,,0.01,508,Wunderground v.1.15,2013-02-27 21:00:00,
2013-02-27 17:00:00,73.8,51.7,29.91,WSW,255,6.0,23.0,46,0.00,,,0.01,134,Wunderground v.1.15,2013-02-27 22:00:00,
2013-02-27 18:01:00,71.0,52.5,29.91,WNW,288,5.0,23.0,52,0.00,,,0.01,21,Wunderground v.1.15,2013-02-27 23:01:00,
2013-02-27 19:01:00,65.8,52.9,29.93,WNW,302,4.0,23.0,63,0.00,,,0.01,0,Wunderground v.1.15,2013-02-28 00:01:00,
2013-02-27 20:00:00,62.3,52.8,29.95,West,277,5.0,23.0,71,0.00,,,0.01,0,Wunderground v.1.15,2013-02-28 01:00:00,
2013-02-27 21:00:00,59.3,51.4,29.96,WNW,297,5.0,23.0,75,0.00,,,0.01,0,Wunderground v.1.15,2013-02-28 02:00:00,
2013-02-27 22:00:00,57.0,50.2,29.97,West,277,5.0,23.0,78,0.00,,,0.01,0,Wunderground v.1.15,2013-02-28 03:00:00,
2013-02-27 23:00:00,55.5,49.4,29.98,West,278,5.0,23.0,80,0.00,,,0.01,0,Wunderground v.1.15,2013-02-28 04:00:00,